メインページ
METAR-TAF:

METAR-TAF

空港 :

太平洋ミサイル試射場

Kekaha, ハワイ州, アメリカ合衆国

緯度: 22-02-11N, 経度: 159-47-11W, 海抜: 4m

現時点の気象観測

当レポートは47分前の08:56(UTC)に作成
北/北東の風 19kt、最大28ktの突風を伴う
気温 21°C
湿度 73%
気圧 1021 hPa
視程: 16.1km
高度3800ftの千切れ雲あり
高度4800ftの曇り
小雨

METAR: PHBK 190856Z AUTO 02019G28KT 10SM -RA BKN038 OVC048 21/16 A3014 RMK AO2 PK WND 36037/0824 SLP207 P0000 60000 T02060156 50003

時間: 23:43 (09:43 UTC)


TAF: 見つかりません

4,000以上の空港の気象観測と天気予報(METAR報とTAF報)

利用可能な観測所は地図上に黄色い丸と赤い丸で示す。

丸の上にカーソルを重ねると観測所名を参照できる。

次にクリックすると気象観測と天気予報を参照できる。

マップの切り替え:黒色「×」印の緑ボタンをクリックして拡大、「-」印の緑ボタンをクリックして縮小、緑色の三角印をクリックして隣りの地図に切り替え


METAR-TAF: